sensor_id;sensor_type;location;lat;lon;timestamp;pressure;altitude;pressure_sealevel;temperature;humidity
7474;BME280;3778;42.572;23.426;2023-03-05T00:01:13;95587.31;;;-146.70;90.88
7474;BME280;3778;42.572;23.426;2023-03-05T00:03:40;95572.72;;;-146.70;90.95
7474;BME280;3778;42.572;23.426;2023-03-05T00:06:07;95568.53;;;-146.70;90.89
7474;BME280;3778;42.572;23.426;2023-03-05T00:08:34;95562.28;;;-146.70;90.92
7474;BME280;3778;42.572;23.426;2023-03-05T00:11:03;95562.28;;;-146.70;90.77
7474;BME280;3778;42.572;23.426;2023-03-05T00:13:32;95570.63;;;-146.70;90.93
7474;BME280;3778;42.572;23.426;2023-03-05T00:16:01;95589.38;;;-146.70;91.04
7474;BME280;3778;42.572;23.426;2023-03-05T00:18:28;95562.28;;;-146.70;91.17
7474;BME280;3778;42.572;23.426;2023-03-05T00:20:54;95491.41;;;-146.70;91.30
7474;BME280;3778;42.572;23.426;2023-03-05T00:23:21;95558.13;;;-146.70;91.38
7474;BME280;3778;42.572;23.426;2023-03-05T00:25:48;95543.53;;;-146.70;91.33
7474;BME280;3778;42.572;23.426;2023-03-05T00:28:15;95547.69;;;-146.70;91.58
7474;BME280;3778;42.572;23.426;2023-03-05T00:30:43;95545.59;;;-146.70;91.38
7474;BME280;3778;42.572;23.426;2023-03-05T00:33:11;95566.44;;;-146.70;91.08
7474;BME280;3778;42.572;23.426;2023-03-05T00:35:39;95599.81;;;-146.70;91.19
7474;BME280;3778;42.572;23.426;2023-03-05T00:38:05;95603.97;;;-146.70;91.54
7474;BME280;3778;42.572;23.426;2023-03-05T00:40:35;95558.13;;;-146.70;91.83
7474;BME280;3778;42.572;23.426;2023-03-05T00:43:02;95551.88;;;-146.70;92.06
7474;BME280;3778;42.572;23.426;2023-03-05T00:45:29;95516.44;;;-146.70;92.36
7474;BME280;3778;42.572;23.426;2023-03-05T00:47:57;95564.38;;;-146.70;92.75
7474;BME280;3778;42.572;23.426;2023-03-05T00:50:24;95553.94;;;-146.70;92.75
7474;BME280;3778;42.572;23.426;2023-03-05T00:52:51;95570.63;;;-146.70;92.66
7474;BME280;3778;42.572;23.426;2023-03-05T00:55:18;95578.97;;;-146.70;92.46
7474;BME280;3778;42.572;23.426;2023-03-05T00:57:45;95581.03;;;-146.70;92.60
7474;BME280;3778;42.572;23.426;2023-03-05T01:00:13;95570.63;;;-146.70;92.48
7474;BME280;3778;42.572;23.426;2023-03-05T01:02:40;95572.72;;;-146.70;92.27
7474;BME280;3778;42.572;23.426;2023-03-05T01:05:10;95545.59;;;-146.70;92.36
7474;BME280;3778;42.572;23.426;2023-03-05T01:07:38;95585.22;;;-146.70;92.48
7474;BME280;3778;42.572;23.426;2023-03-05T01:10:06;95568.53;;;-146.70;92.70
7474;BME280;3778;42.572;23.426;2023-03-05T01:12:34;95558.13;;;-146.70;92.79
7474;BME280;3778;42.572;23.426;2023-03-05T01:15:00;95595.63;;;-146.70;93.04
7474;BME280;3778;42.572;23.426;2023-03-05T01:17:27;95570.63;;;-146.70;93.13
7474;BME280;3778;42.572;23.426;2023-03-05T01:19:54;95574.78;;;-146.70;92.90
7474;BME280;3778;42.572;23.426;2023-03-05T01:22:22;95566.44;;;-146.70;92.99
7474;BME280;3778;42.572;23.426;2023-03-05T01:24:49;95562.28;;;-146.70;93.15
7474;BME280;3778;42.572;23.426;2023-03-05T01:27:15;95568.53;;;-146.70;93.16
7474;BME280;3778;42.572;23.426;2023-03-05T01:29:42;95578.97;;;-146.70;93.03
7474;BME280;3778;42.572;23.426;2023-03-05T01:32:09;95545.59;;;-146.70;92.98
7474;BME280;3778;42.572;23.426;2023-03-05T01:34:36;95472.66;;;-146.70;93.11
7474;BME280;3778;42.572;23.426;2023-03-05T01:37:03;95583.13;;;-146.70;93.03
7474;BME280;3778;42.572;23.426;2023-03-05T01:39:31;95553.94;;;-146.70;92.83
7474;BME280;3778;42.572;23.426;2023-03-05T01:41:58;95568.53;;;-146.70;92.86
7474;BME280;3778;42.572;23.426;2023-03-05T01:44:26;95566.44;;;-146.70;93.01
7474;BME280;3778;42.572;23.426;2023-03-05T01:46:53;95587.31;;;-146.70;93.06
7474;BME280;3778;42.572;23.426;2023-03-05T01:49:22;95547.69;;;-146.70;92.88
7474;BME280;3778;42.572;23.426;2023-03-05T01:52:00;95524.75;;;-146.70;92.76
7474;BME280;3778;42.572;23.426;2023-03-05T01:54:33;95566.44;;;-146.70;92.56
7474;BME280;3778;42.572;23.426;2023-03-05T01:57:05;95576.88;;;-146.70;92.53
7474;BME280;3778;42.572;23.426;2023-03-05T01:59:35;95562.28;;;-146.70;92.46
7474;BME280;3778;42.572;23.426;2023-03-05T02:02:03;95585.22;;;-146.70;92.54
7474;BME280;3778;42.572;23.426;2023-03-05T02:04:35;95560.19;;;-146.70;92.66
7474;BME280;3778;42.572;23.426;2023-03-05T02:07:04;95543.53;;;-146.70;92.36
7474;BME280;3778;42.572;23.426;2023-03-05T02:09:30;95518.50;;;-146.70;92.05
7474;BME280;3778;42.572;23.426;2023-03-05T02:11:58;95549.78;;;-146.70;91.84
7474;BME280;3778;42.572;23.426;2023-03-05T02:14:25;95541.44;;;-146.70;91.83
7474;BME280;3778;42.572;23.426;2023-03-05T02:16:52;95531.00;;;-146.70;91.80
7474;BME280;3778;42.572;23.426;2023-03-05T02:19:19;95562.28;;;-146.70;91.78
7474;BME280;3778;42.572;23.426;2023-03-05T02:21:47;95587.31;;;-146.70;91.67
7474;BME280;3778;42.572;23.426;2023-03-05T02:24:16;95587.31;;;-146.70;91.68
7474;BME280;3778;42.572;23.426;2023-03-05T02:26:44;95541.44;;;-146.70;91.91
7474;BME280;3778;42.572;23.426;2023-03-05T02:29:14;95576.88;;;-146.70;91.96
7474;BME280;3778;42.572;23.426;2023-03-05T02:31:42;95522.69;;;-146.70;92.33
7474;BME280;3778;42.572;23.426;2023-03-05T02:34:09;95593.56;;;-146.70;92.46
7474;BME280;3778;42.572;23.426;2023-03-05T02:36:36;95545.59;;;-146.70;92.30
7474;BME280;3778;42.572;23.426;2023-03-05T02:39:04;95549.78;;;-146.70;91.93
7474;BME280;3778;42.572;23.426;2023-03-05T02:41:31;95576.88;;;-146.70;92.03
7474;BME280;3778;42.572;23.426;2023-03-05T02:43:58;95556.03;;;-146.70;91.97
7474;BME280;3778;42.572;23.426;2023-03-05T02:46:24;95581.03;;;-146.70;92.07
7474;BME280;3778;42.572;23.426;2023-03-05T02:48:51;95593.56;;;-146.70;91.96
7474;BME280;3778;42.572;23.426;2023-03-05T02:51:18;95572.72;;;-146.70;92.04
7474;BME280;3778;42.572;23.426;2023-03-05T02:53:44;95589.38;;;-146.70;92.13
7474;BME280;3778;42.572;23.426;2023-03-05T02:56:13;95564.38;;;-146.70;92.22
7474;BME280;3778;42.572;23.426;2023-03-05T02:58:39;95533.09;;;-146.70;92.25
7474;BME280;3778;42.572;23.426;2023-03-05T03:01:07;95601.88;;;-146.70;92.55
7474;BME280;3778;42.572;23.426;2023-03-05T03:03:34;95551.88;;;-146.70;92.52
7474;BME280;3778;42.572;23.426;2023-03-05T03:06:00;95568.53;;;-146.70;92.74
7474;BME280;3778;42.572;23.426;2023-03-05T03:08:27;95570.63;;;-146.70;92.79
7474;BME280;3778;42.572;23.426;2023-03-05T03:10:54;95533.09;;;-146.70;92.91
7474;BME280;3778;42.572;23.426;2023-03-05T03:13:23;95560.19;;;-146.70;92.80
7474;BME280;3778;42.572;23.426;2023-03-05T03:15:49;95558.13;;;-146.70;92.83
7474;BME280;3778;42.572;23.426;2023-03-05T03:18:16;95570.63;;;-146.70;92.68
7474;BME280;3778;42.572;23.426;2023-03-05T03:20:43;95574.78;;;-146.70;92.68
7474;BME280;3778;42.572;23.426;2023-03-05T03:23:09;95566.44;;;-146.70;92.91
7474;BME280;3778;42.572;23.426;2023-03-05T03:25:36;95570.63;;;-146.70;92.83
7474;BME280;3778;42.572;23.426;2023-03-05T03:28:03;95572.72;;;-146.70;92.91
7474;BME280;3778;42.572;23.426;2023-03-05T03:30:31;95578.97;;;-146.70;92.93
7474;BME280;3778;42.572;23.426;2023-03-05T03:32:58;95589.38;;;-146.70;92.83
7474;BME280;3778;42.572;23.426;2023-03-05T03:35:24;95564.38;;;-146.70;92.92
7474;BME280;3778;42.572;23.426;2023-03-05T03:37:51;95558.13;;;-146.70;93.03
7474;BME280;3778;42.572;23.426;2023-03-05T03:40:18;95539.34;;;-146.70;92.96
7474;BME280;3778;42.572;23.426;2023-03-05T03:42:44;95558.13;;;-146.70;92.98
7474;BME280;3778;42.572;23.426;2023-03-05T03:45:12;95520.59;;;-146.70;92.98
7474;BME280;3778;42.572;23.426;2023-03-05T03:47:40;95553.94;;;-146.70;92.56
7474;BME280;3778;42.572;23.426;2023-03-05T03:50:08;95560.19;;;-146.70;91.92
7474;BME280;3778;42.572;23.426;2023-03-05T03:52:35;95556.03;;;-146.70;90.83
7474;BME280;3778;42.572;23.426;2023-03-05T03:55:01;95553.94;;;-146.70;90.31
7474;BME280;3778;42.572;23.426;2023-03-05T03:57:28;95581.03;;;-146.70;90.17
7474;BME280;3778;42.572;23.426;2023-03-05T03:59:58;95566.44;;;-146.70;90.08
7474;BME280;3778;42.572;23.426;2023-03-05T04:02:25;95545.59;;;-146.70;89.54
7474;BME280;3778;42.572;23.426;2023-03-05T04:04:53;95524.75;;;-146.70;89.34
7474;BME280;3778;42.572;23.426;2023-03-05T04:07:20;95549.78;;;-146.70;88.69
7474;BME280;3778;42.572;23.426;2023-03-05T04:09:46;95562.28;;;-146.70;88.64
7474;BME280;3778;42.572;23.426;2023-03-05T04:12:13;95545.59;;;-146.70;88.67
7474;BME280;3778;42.572;23.426;2023-03-05T04:14:43;95597.72;;;-146.70;88.19
7474;BME280;3778;42.572;23.426;2023-03-05T04:17:10;95551.88;;;-146.70;86.64
7474;BME280;3778;42.572;23.426;2023-03-05T04:19:37;95503.91;;;-146.70;86.30
7474;BME280;3778;42.572;23.426;2023-03-05T04:22:06;95545.59;;;-146.70;84.08
7474;BME280;3778;42.572;23.426;2023-03-05T04:24:33;95562.28;;;-146.70;81.70
7474;BME280;3778;42.572;23.426;2023-03-05T04:26:59;95531.00;;;-146.70;81.68
7474;BME280;3778;42.572;23.426;2023-03-05T04:29:26;95537.28;;;-146.70;81.61
7474;BME280;3778;42.572;23.426;2023-03-05T04:31:53;95487.25;;;-146.70;80.79
7474;BME280;3778;42.572;23.426;2023-03-05T04:34:20;95520.59;;;-146.70;79.95
7474;BME280;3778;42.572;23.426;2023-03-05T04:36:46;95506.00;;;-146.70;79.59
7474;BME280;3778;42.572;23.426;2023-03-05T04:39:14;95541.44;;;-146.70;78.80
7474;BME280;3778;42.572;23.426;2023-03-05T04:41:41;95549.78;;;-146.70;78.48
7474;BME280;3778;42.572;23.426;2023-03-05T04:44:08;95533.09;;;-146.70;78.16
7474;BME280;3778;42.572;23.426;2023-03-05T04:46:35;95516.44;;;-146.70;78.04
7474;BME280;3778;42.572;23.426;2023-03-05T04:49:02;95524.75;;;-146.70;78.24
7474;BME280;3778;42.572;23.426;2023-03-05T04:51:29;95497.66;;;-146.70;78.37
7474;BME280;3778;42.572;23.426;2023-03-05T04:53:55;95549.78;;;-146.70;78.30
7474;BME280;3778;42.572;23.426;2023-03-05T04:56:23;95508.09;;;-146.70;78.50
7474;BME280;3778;42.572;23.426;2023-03-05T04:58:50;95541.44;;;-146.70;78.17
7474;BME280;3778;42.572;23.426;2023-03-05T05:01:17;95541.44;;;-146.70;77.78
7474;BME280;3778;42.572;23.426;2023-03-05T05:03:43;95503.91;;;-146.70;77.42
7474;BME280;3778;42.572;23.426;2023-03-05T05:06:10;95506.00;;;-146.70;77.55
7474;BME280;3778;42.572;23.426;2023-03-05T05:08:37;95545.59;;;-146.70;77.87
7474;BME280;3778;42.572;23.426;2023-03-05T05:11:05;95485.16;;;-146.70;77.10
7474;BME280;3778;42.572;23.426;2023-03-05T05:13:34;95514.34;;;-146.70;77.00
7474;BME280;3778;42.572;23.426;2023-03-05T05:16:01;95474.75;;;-146.70;77.14
7474;BME280;3778;42.572;23.426;2023-03-05T05:18:28;95489.31;;;-146.70;76.75
7474;BME280;3778;42.572;23.426;2023-03-05T05:20:54;95481.00;;;-146.70;76.12
7474;BME280;3778;42.572;23.426;2023-03-05T05:23:21;95493.50;;;-146.70;75.46
7474;BME280;3778;42.572;23.426;2023-03-05T05:25:55;95533.09;;;-146.70;75.76
7474;BME280;3778;42.572;23.426;2023-03-05T05:28:21;95497.66;;;-146.70;75.63
7474;BME280;3778;42.572;23.426;2023-03-05T05:30:50;95503.91;;;-146.70;74.91
7474;BME280;3778;42.572;23.426;2023-03-05T05:33:16;95499.75;;;-146.70;73.83
7474;BME280;3778;42.572;23.426;2023-03-05T05:35:43;95543.53;;;-146.70;73.85
7474;BME280;3778;42.572;23.426;2023-03-05T05:38:10;95478.91;;;-146.70;72.08
7474;BME280;3778;42.572;23.426;2023-03-05T05:40:36;95499.75;;;-146.70;72.29
7474;BME280;3778;42.572;23.426;2023-03-05T05:43:03;95487.25;;;-146.70;71.03
7474;BME280;3778;42.572;23.426;2023-03-05T05:45:30;95487.25;;;-146.70;71.00
7474;BME280;3778;42.572;23.426;2023-03-05T05:47:58;95478.91;;;-146.70;70.34
7474;BME280;3778;42.572;23.426;2023-03-05T05:50:25;95481.00;;;-146.70;71.03
7474;BME280;3778;42.572;23.426;2023-03-05T05:52:52;95481.00;;;-146.70;69.91
7474;BME280;3778;42.572;23.426;2023-03-05T05:55:19;95449.72;;;-146.70;69.42
7474;BME280;3778;42.572;23.426;2023-03-05T05:57:45;95433.06;;;-146.70;68.91
7474;BME280;3778;42.572;23.426;2023-03-05T06:00:13;95445.56;;;-146.70;68.70
7474;BME280;3778;42.572;23.426;2023-03-05T06:02:41;95460.16;;;-146.70;67.63
7474;BME280;3778;42.572;23.426;2023-03-05T06:05:11;95451.81;;;-146.70;68.06
7474;BME280;3778;42.572;23.426;2023-03-05T06:07:37;95439.31;;;-146.70;67.20
7474;BME280;3778;42.572;23.426;2023-03-05T06:10:05;95462.22;;;-146.70;66.35
7474;BME280;3778;42.572;23.426;2023-03-05T06:12:32;95426.78;;;-146.70;66.89
7474;BME280;3778;42.572;23.426;2023-03-05T06:14:59;95445.56;;;-146.70;66.39
7474;BME280;3778;42.572;23.426;2023-03-05T06:17:27;95412.22;;;-146.70;66.39
7474;BME280;3778;42.572;23.426;2023-03-05T06:19:54;95416.38;;;-146.70;65.32
7474;BME280;3778;42.572;23.426;2023-03-05T06:22:22;95405.94;;;-146.70;65.51
7474;BME280;3778;42.572;23.426;2023-03-05T06:24:48;95418.47;;;-146.70;66.16
7474;BME280;3778;42.572;23.426;2023-03-05T06:27:15;95378.84;;;-146.70;64.96
7474;BME280;3778;42.572;23.426;2023-03-05T06:29:42;95420.53;;;-146.70;63.55
7474;BME280;3778;42.572;23.426;2023-03-05T06:32:08;95433.06;;;-146.70;63.93
7474;BME280;3778;42.572;23.426;2023-03-05T06:34:35;95424.72;;;-146.70;63.26
7474;BME280;3778;42.572;23.426;2023-03-05T06:37:02;95410.13;;;-146.70;63.31
7474;BME280;3778;42.572;23.426;2023-03-05T06:39:30;95385.09;;;-146.70;63.13
7474;BME280;3778;42.572;23.426;2023-03-05T06:41:57;95372.59;;;-146.70;62.31
7474;BME280;3778;42.572;23.426;2023-03-05T06:44:23;95391.38;;;-146.70;61.24
7474;BME280;3778;42.572;23.426;2023-03-05T06:46:50;95330.91;;;-146.70;60.03
7474;BME280;3778;42.572;23.426;2023-03-05T06:49:17;95370.53;;;-146.70;59.08
7474;BME280;3778;42.572;23.426;2023-03-05T06:51:43;95343.44;;;-146.70;57.99
7474;BME280;3778;42.572;23.426;2023-03-05T06:54:13;95337.16;;;-146.70;57.43
7474;BME280;3778;42.572;23.426;2023-03-05T06:56:43;95318.41;;;-146.70;57.18
7474;BME280;3778;42.572;23.426;2023-03-05T06:59:11;95320.50;;;-146.70;56.03
7474;BME280;3778;42.572;23.426;2023-03-05T07:01:38;95324.66;;;-146.70;57.16
7474;BME280;3778;42.572;23.426;2023-03-05T07:04:05;95330.91;;;-146.70;57.25
7474;BME280;3778;42.572;23.426;2023-03-05T07:06:34;95297.56;;;-146.70;57.57
7474;BME280;3778;42.572;23.426;2023-03-05T07:09:03;95291.31;;;-146.70;55.25
7474;BME280;3778;42.572;23.426;2023-03-05T07:11:31;95289.22;;;-146.70;55.95
7474;BME280;3778;42.572;23.426;2023-03-05T07:13:59;95253.78;;;-146.70;55.66
7474;BME280;3778;42.572;23.426;2023-03-05T07:16:28;95255.88;;;-146.70;55.11
7474;BME280;3778;42.572;23.426;2023-03-05T07:18:56;95245.47;;;-146.70;54.64
7474;BME280;3778;42.572;23.426;2023-03-05T07:21:25;95253.78;;;-146.70;54.00
7474;BME280;3778;42.572;23.426;2023-03-05T07:23:53;95264.22;;;-146.70;54.46
7474;BME280;3778;42.572;23.426;2023-03-05T07:26:20;95257.97;;;-146.70;53.51
7474;BME280;3778;42.572;23.426;2023-03-05T07:28:47;95264.22;;;-146.70;54.41
7474;BME280;3778;42.572;23.426;2023-03-05T07:31:17;95137.06;;;-146.70;54.13
7474;BME280;3778;42.572;23.426;2023-03-05T07:33:44;95303.81;;;-146.70;54.95
7474;BME280;3778;42.572;23.426;2023-03-05T07:36:11;95253.78;;;-146.70;54.54
7474;BME280;3778;42.572;23.426;2023-03-05T07:38:39;95212.13;;;-146.70;54.66
7474;BME280;3778;42.572;23.426;2023-03-05T07:41:07;95218.38;;;-146.70;53.74
7474;BME280;3778;42.572;23.426;2023-03-05T07:43:35;95243.38;;;-146.70;52.70
7474;BME280;3778;42.572;23.426;2023-03-05T07:46:03;95214.19;;;-146.70;54.09
7474;BME280;3778;42.572;23.426;2023-03-05T07:48:31;95162.09;;;-146.70;53.79
7474;BME280;3778;42.572;23.426;2023-03-05T07:51:02;95251.72;;;-146.70;54.30
7474;BME280;3778;42.572;23.426;2023-03-05T07:53:29;95285.06;;;-146.70;54.40
7474;BME280;3778;42.572;23.426;2023-03-05T07:55:56;95249.63;;;-146.70;53.97
7474;BME280;3778;42.572;23.426;2023-03-05T07:58:22;95282.97;;;-146.70;53.91
7474;BME280;3778;42.572;23.426;2023-03-05T08:00:50;95293.41;;;-146.70;54.66
7474;BME280;3778;42.572;23.426;2023-03-05T08:03:16;95278.81;;;-146.70;55.20
7474;BME280;3778;42.572;23.426;2023-03-05T08:05:45;95264.22;;;-146.70;55.50
7474;BME280;3778;42.572;23.426;2023-03-05T08:08:11;95291.31;;;-146.70;55.90
7474;BME280;3778;42.572;23.426;2023-03-05T08:10:38;95241.28;;;-146.70;56.44
7474;BME280;3778;42.572;23.426;2023-03-05T08:13:05;95312.16;;;-146.70;56.70
7474;BME280;3778;42.572;23.426;2023-03-05T08:15:31;95299.66;;;-146.70;56.65
7474;BME280;3778;42.572;23.426;2023-03-05T08:17:58;95314.25;;;-146.70;57.00
7474;BME280;3778;42.572;23.426;2023-03-05T08:20:25;95326.75;;;-146.70;56.79
7474;BME280;3778;42.572;23.426;2023-03-05T08:22:53;95347.59;;;-146.70;57.12
7474;BME280;3778;42.572;23.426;2023-03-05T08:25:20;95291.31;;;-146.70;57.83
7474;BME280;3778;42.572;23.426;2023-03-05T08:27:47;95297.56;;;-146.70;57.62
7474;BME280;3778;42.572;23.426;2023-03-05T08:30:16;95324.66;;;-146.70;57.60
7474;BME280;3778;42.572;23.426;2023-03-05T08:32:43;95320.50;;;-146.70;58.24
7474;BME280;3778;42.572;23.426;2023-03-05T08:35:11;95312.16;;;-146.70;58.21
7474;BME280;3778;42.572;23.426;2023-03-05T08:37:37;95320.50;;;-146.70;58.01
7474;BME280;3778;42.572;23.426;2023-03-05T08:40:07;95289.22;;;-146.70;57.34
7474;BME280;3778;42.572;23.426;2023-03-05T08:42:34;95312.16;;;-146.70;57.69
7474;BME280;3778;42.572;23.426;2023-03-05T08:45:01;95299.66;;;-146.70;57.65
7474;BME280;3778;42.572;23.426;2023-03-05T08:47:27;95276.72;;;-146.70;57.20
7474;BME280;3778;42.572;23.426;2023-03-05T08:49:54;95295.47;;;-146.70;57.67
7474;BME280;3778;42.572;23.426;2023-03-05T08:52:22;95353.84;;;-146.70;57.47
7474;BME280;3778;42.572;23.426;2023-03-05T08:54:48;95262.13;;;-146.70;58.63
7474;BME280;3778;42.572;23.426;2023-03-05T08:57:17;95287.16;;;-146.70;57.30
7474;BME280;3778;42.572;23.426;2023-03-05T08:59:43;95291.31;;;-146.70;57.17
7474;BME280;3778;42.572;23.426;2023-03-05T09:02:11;95285.06;;;-146.70;56.39
7474;BME280;3778;42.572;23.426;2023-03-05T09:04:38;95287.16;;;-146.70;56.84
7474;BME280;3778;42.572;23.426;2023-03-05T09:07:05;95218.38;;;-146.70;57.07
7474;BME280;3778;42.572;23.426;2023-03-05T09:09:32;95282.97;;;-146.70;55.99
7474;BME280;3778;42.572;23.426;2023-03-05T09:11:59;95232.97;;;-146.70;55.65
7474;BME280;3778;42.572;23.426;2023-03-05T09:14:27;95257.97;;;-146.70;54.92
7474;BME280;3778;42.572;23.426;2023-03-05T09:16:54;95247.53;;;-146.70;52.98
7474;BME280;3778;42.572;23.426;2023-03-05T09:19:21;95241.28;;;-146.70;53.49
7474;BME280;3778;42.572;23.426;2023-03-05T09:21:48;95226.69;;;-146.70;52.38
7474;BME280;3778;42.572;23.426;2023-03-05T09:24:14;95228.78;;;-146.70;53.97
7474;BME280;3778;42.572;23.426;2023-03-05T09:26:41;95235.03;;;-146.70;52.28
7474;BME280;3778;42.572;23.426;2023-03-05T09:29:08;95203.78;;;-146.70;50.83
7474;BME280;3778;42.572;23.426;2023-03-05T09:31:36;95207.94;;;-146.70;49.29
7474;BME280;3778;42.572;23.426;2023-03-05T09:34:04;95197.53;;;-146.70;48.40
7474;BME280;3778;42.572;23.426;2023-03-05T09:36:32;95197.53;;;-146.70;48.41
7474;BME280;3778;42.572;23.426;2023-03-05T09:38:59;95191.28;;;-146.70;48.79
7474;BME280;3778;42.572;23.426;2023-03-05T09:41:32;95197.53;;;-146.70;48.80
7474;BME280;3778;42.572;23.426;2023-03-05T09:44:09;95207.94;;;-146.70;49.52
7474;BME280;3778;42.572;23.426;2023-03-05T09:46:50;95151.66;;;-146.70;48.61
7474;BME280;3778;42.572;23.426;2023-03-05T09:49:22;95137.06;;;-146.70;48.07
7474;BME280;3778;42.572;23.426;2023-03-05T09:52:06;95145.41;;;-146.70;48.40
7474;BME280;3778;42.572;23.426;2023-03-05T09:54:38;95174.59;;;-146.70;48.49
7474;BME280;3778;42.572;23.426;2023-03-05T09:57:13;95193.34;;;-146.70;48.26
7474;BME280;3778;42.572;23.426;2023-03-05T09:59:46;95139.16;;;-146.70;48.40
7474;BME280;3778;42.572;23.426;2023-03-05T10:02:20;95199.59;;;-146.70;48.00
7474;BME280;3778;42.572;23.426;2023-03-05T10:04:51;95170.44;;;-146.70;48.30
7474;BME280;3778;42.572;23.426;2023-03-05T10:07:20;95151.66;;;-146.70;48.76
7474;BME280;3778;42.572;23.426;2023-03-05T10:09:54;95128.75;;;-146.70;48.74
7474;BME280;3778;42.572;23.426;2023-03-05T10:12:24;95091.22;;;-146.70;48.71
7474;BME280;3778;42.572;23.426;2023-03-05T10:14:52;95153.75;;;-146.70;47.92
7474;BME280;3778;42.572;23.426;2023-03-05T10:17:57;95128.75;;;-146.70;48.74
7474;BME280;3778;42.572;23.426;2023-03-05T10:20:47;95155.84;;;-146.70;48.78
7474;BME280;3778;42.572;23.426;2023-03-05T10:23:38;95130.81;;;-146.70;49.76
7474;BME280;3778;42.572;23.426;2023-03-05T10:26:19;95122.50;;;-146.70;49.20
7474;BME280;3778;42.572;23.426;2023-03-05T10:28:57;95149.59;;;-146.70;49.37
7474;BME280;3778;42.572;23.426;2023-03-05T10:31:41;95099.56;;;-146.70;49.61
7474;BME280;3778;42.572;23.426;2023-03-05T10:34:24;95141.25;;;-146.70;49.28
7474;BME280;3778;42.572;23.426;2023-03-05T10:37:05;95180.84;;;-146.70;48.81
7474;BME280;3778;42.572;23.426;2023-03-05T10:39:48;95174.59;;;-146.70;50.06
7474;BME280;3778;42.572;23.426;2023-03-05T10:42:24;95124.56;;;-146.70;49.40
7474;BME280;3778;42.572;23.426;2023-03-05T10:44:55;95139.16;;;-146.70;48.92
7474;BME280;3778;42.572;23.426;2023-03-05T10:47:24;95149.59;;;-146.70;48.79
7474;BME280;3778;42.572;23.426;2023-03-05T10:49:56;95149.59;;;-146.70;48.57
7474;BME280;3778;42.572;23.426;2023-03-05T10:52:27;95157.91;;;-146.70;48.47
7474;BME280;3778;42.572;23.426;2023-03-05T10:54:56;95137.06;;;-146.70;48.32
7474;BME280;3778;42.572;23.426;2023-03-05T10:57:24;95118.31;;;-146.70;48.48
7474;BME280;3778;42.572;23.426;2023-03-05T10:59:53;95141.25;;;-146.70;48.16
7474;BME280;3778;42.572;23.426;2023-03-05T11:02:23;95141.25;;;-146.70;48.10
7474;BME280;3778;42.572;23.426;2023-03-05T11:04:50;95130.81;;;-146.70;48.03
7474;BME280;3778;42.572;23.426;2023-03-05T11:07:36;95097.47;;;-146.70;48.62
7474;BME280;3778;42.572;23.426;2023-03-05T11:10:17;95099.56;;;-146.70;47.84
7474;BME280;3778;42.572;23.426;2023-03-05T11:12:46;95132.91;;;-146.70;47.87
7474;BME280;3778;42.572;23.426;2023-03-05T11:15:29;95141.25;;;-146.70;47.69
7474;BME280;3778;42.572;23.426;2023-03-05T11:18:14;95091.22;;;-146.70;47.83
7474;BME280;3778;42.572;23.426;2023-03-05T11:20:42;95160.00;;;-146.70;47.06
7474;BME280;3778;42.572;23.426;2023-03-05T11:23:12;95124.56;;;-146.70;46.79
7474;BME280;3778;42.572;23.426;2023-03-05T11:25:54;95137.06;;;-146.70;47.75
7474;BME280;3778;42.572;23.426;2023-03-05T11:28:25;95128.75;;;-146.70;47.81
7474;BME280;3778;42.572;23.426;2023-03-05T11:30:57;95026.63;;;-146.70;48.17
7474;BME280;3778;42.572;23.426;2023-03-05T11:33:25;95128.75;;;-146.70;48.18
7474;BME280;3778;42.572;23.426;2023-03-05T11:36:09;95191.28;;;-146.70;47.82
7474;BME280;3778;42.572;23.426;2023-03-05T11:38:46;95074.56;;;-146.70;47.74
7474;BME280;3778;42.572;23.426;2023-03-05T11:41:16;95116.25;;;-146.70;48.07
7474;BME280;3778;42.572;23.426;2023-03-05T11:43:45;95091.22;;;-146.70;48.16
7474;BME280;3778;42.572;23.426;2023-03-05T11:46:16;95093.31;;;-146.70;48.37
7474;BME280;3778;42.572;23.426;2023-03-05T11:48:44;95122.50;;;-146.70;47.70
7474;BME280;3778;42.572;23.426;2023-03-05T11:51:16;95097.47;;;-146.70;47.90
7474;BME280;3778;42.572;23.426;2023-03-05T11:53:49;95072.47;;;-146.70;48.40
7474;BME280;3778;42.572;23.426;2023-03-05T11:56:20;95093.31;;;-146.70;47.88
7474;BME280;3778;42.572;23.426;2023-03-05T11:58:50;95078.72;;;-146.70;47.56
7474;BME280;3778;42.572;23.426;2023-03-05T12:01:19;95143.34;;;-146.70;47.92
7474;BME280;3778;42.572;23.426;2023-03-05T12:03:47;95109.97;;;-146.70;48.51
7474;BME280;3778;42.572;23.426;2023-03-05T12:06:19;95182.94;;;-146.70;47.85
7474;BME280;3778;42.572;23.426;2023-03-05T12:08:54;95032.88;;;-146.70;48.29
7474;BME280;3778;42.572;23.426;2023-03-05T12:11:24;95112.06;;;-146.70;48.63
7474;BME280;3778;42.572;23.426;2023-03-05T12:13:55;95095.41;;;-146.70;48.30
7474;BME280;3778;42.572;23.426;2023-03-05T12:16:27;95055.78;;;-146.70;48.90
7474;BME280;3778;42.572;23.426;2023-03-05T12:19:03;95072.47;;;-146.70;48.34
7474;BME280;3778;42.572;23.426;2023-03-05T12:21:37;95095.41;;;-146.70;48.11
7474;BME280;3778;42.572;23.426;2023-03-05T12:24:33;95074.56;;;-146.70;47.95
7474;BME280;3778;42.572;23.426;2023-03-05T12:27:16;95080.81;;;-146.70;48.67
7474;BME280;3778;42.572;23.426;2023-03-05T12:29:56;95053.72;;;-146.70;47.64
7474;BME280;3778;42.572;23.426;2023-03-05T12:32:59;95072.47;;;-146.70;47.98
7474;BME280;3778;42.572;23.426;2023-03-05T12:35:31;95053.72;;;-146.70;47.87
7474;BME280;3778;42.572;23.426;2023-03-05T12:38:12;95064.13;;;-146.70;47.40
7474;BME280;3778;42.572;23.426;2023-03-05T12:40:43;95084.97;;;-146.70;47.32
7474;BME280;3778;42.572;23.426;2023-03-05T12:43:29;95064.13;;;-146.70;48.10
7474;BME280;3778;42.572;23.426;2023-03-05T12:46:23;95057.88;;;-146.70;47.79
7474;BME280;3778;42.572;23.426;2023-03-05T12:48:51;95043.28;;;-146.70;47.54
7474;BME280;3778;42.572;23.426;2023-03-05T12:51:32;95026.63;;;-146.70;47.61
7474;BME280;3778;42.572;23.426;2023-03-05T12:54:20;95005.78;;;-146.70;47.13
7474;BME280;3778;42.572;23.426;2023-03-05T12:56:49;95045.38;;;-146.70;47.29
7474;BME280;3778;42.572;23.426;2023-03-05T12:59:19;94999.53;;;-146.70;47.76
7474;BME280;3778;42.572;23.426;2023-03-05T13:01:51;95012.03;;;-146.70;47.33